Terminal Aerodrome Forecast
Issued by NWS

Current Version | Previous Version | Graphics & Text | Print | Product List | Glossary On
Versions: 1 2 3 4 5 6 7 8 9 10 11 12 13 14 15 16 17 18 19 20 21 22 23 24 25
000
FTUS41 KILN 300500
TAFLUK
TAF
KLUK 300527Z 3006/3106 19005KT P6SM BKN100
     FM300800 00000KT 3SM BR SCT100
     FM301300 20009KT P6SM SCT040
     FM301800 20011G19KT P6SM VCTS BKN050CB
     FM302100 20011G19KT P6SM SCT050
     FM310000 20007KT P6SM FEW050 SCT150=

USA.gov is the U.S. government's official web portal to all federal, state and local government web resources and services.